Time;durP1;ratioP1;P1;durP2;ratioP2;P2;SDS_P1;SDS_P2;PMS_P1;PMS_P2;Temp;Humidity;BMP_temperature;BMP_pressure;BME280_temperature;BME280_humidity;BME280_pressure;Samples;Min_cycle;Max_cycle;Signal;HPM_P1;HPM_P2
2024/03/29 00:00:44;;;;;;;1.20;0.80;;;9.30;99.90;;;;;;5031074;28;20229;-54
2024/03/29 00:03:10;;;;;;;1.20;0.70;;;9.20;99.90;;;;;;5031307;28;20421;-51
2024/03/29 00:05:36;;;;;;;1.57;1.17;;;9.20;99.90;;;;;;5030819;28;20995;-53
2024/03/29 00:08:03;;;;;;;1.97;1.10;;;9.10;99.90;;;;;;5031390;28;20176;-54
2024/03/29 00:10:29;;;;;;;1.13;0.80;;;9.00;99.90;;;;;;5031059;28;20413;-51
2024/03/29 00:12:54;;;;;;;1.43;0.90;;;9.00;99.90;;;;;;5030908;28;20418;-54
2024/03/29 00:15:20;;;;;;;1.17;0.73;;;9.00;99.90;;;;;;5031059;28;20176;-54
2024/03/29 00:17:45;;;;;;;1.37;0.80;;;9.10;99.90;;;;;;5030840;28;20175;-58
2024/03/29 00:20:11;;;;;;;1.10;0.80;;;9.10;99.90;;;;;;5030824;28;20280;-56
2024/03/29 00:22:37;;;;;;;1.90;1.00;;;9.20;99.90;;;;;;5030206;28;20180;-53
2024/03/29 00:25:03;;;;;;;1.50;0.87;;;9.20;99.90;;;;;;5030908;28;20464;-54
2024/03/29 00:27:30;;;;;;;1.83;0.90;;;9.30;99.90;;;;;;5034069;28;20413;-53
2024/03/29 00:29:56;;;;;;;2.00;0.80;;;9.30;99.90;;;;;;5034280;28;20442;-57
2024/03/29 00:32:21;;;;;;;1.30;0.93;;;9.40;99.90;;;;;;5034251;28;20413;-54
2024/03/29 00:34:50;;;;;;;1.07;0.73;;;9.40;99.90;;;;;;5033473;28;20172;-54
2024/03/29 00:37:16;;;;;;;1.10;0.90;;;9.40;99.90;;;;;;5033809;28;20445;-54
2024/03/29 00:39:42;;;;;;;1.57;0.80;;;9.40;99.90;;;;;;5033770;28;20793;-57
2024/03/29 00:42:08;;;;;;;2.37;1.40;;;9.40;99.90;;;;;;5034102;28;20517;-56
2024/03/29 00:44:37;;;;;;;2.73;1.50;;;9.40;99.90;;;;;;5030592;28;20213;-56
2024/03/29 00:47:06;;;;;;;1.57;0.90;;;9.40;99.90;;;;;;5030204;28;20979;-52
2024/03/29 00:49:31;;;;;;;0.97;0.90;;;9.40;99.90;;;;;;5033549;28;20438;-52
2024/03/29 00:51:57;;;;;;;1.10;0.90;;;9.40;99.90;;;;;;5034175;28;20780;-52
2024/03/29 00:54:25;;;;;;;2.50;1.13;;;9.40;99.90;;;;;;5034259;28;20633;-55
2024/03/29 00:56:52;;;;;;;2.70;0.87;;;9.30;99.90;;;;;;5033512;28;20194;-53
2024/03/29 00:59:18;;;;;;;2.60;0.90;;;9.20;99.90;;;;;;5033344;28;20975;-54
2024/03/29 01:01:44;;;;;;;3.03;1.00;;;9.00;99.90;;;;;;5032985;28;20436;-54
2024/03/29 01:04:10;;;;;;;1.10;0.90;;;8.90;99.90;;;;;;5033753;28;20430;-56
2024/03/29 01:06:36;;;;;;;1.20;0.90;;;8.80;99.90;;;;;;5033691;28;20793;-55
2024/03/29 01:09:02;;;;;;;1.40;0.90;;;8.70;99.90;;;;;;5033568;28;20425;-54
2024/03/29 01:11:28;;;;;;;1.13;0.80;;;8.60;99.90;;;;;;5033901;28;20185;-54
2024/03/29 01:13:54;;;;;;;2.50;1.10;;;8.50;99.90;;;;;;5033650;28;20421;-54
2024/03/29 01:16:19;;;;;;;6.83;1.10;;;8.40;99.90;;;;;;5029416;28;20433;-57
2024/03/29 01:18:45;;;;;;;2.23;1.33;;;8.30;99.90;;;;;;5014807;28;20694;-53
2024/03/29 01:21:12;;;;;;;7.90;1.20;;;8.20;99.90;;;;;;5031935;28;20285;-55
2024/03/29 01:23:38;;;;;;;1.90;1.03;;;8.10;99.90;;;;;;5032146;28;20937;-57
2024/03/29 01:26:05;;;;;;;2.60;1.10;;;8.00;99.90;;;;;;5034117;28;20448;-53
2024/03/29 01:28:30;;;;;;;1.50;1.10;;;7.90;99.90;;;;;;5033489;28;20196;-55
2024/03/29 01:30:58;;;;;;;1.20;1.10;;;7.90;99.90;;;;;;5033366;28;20467;-52
2024/03/29 01:33:24;;;;;;;2.40;0.90;;;7.80;99.90;;;;;;5033521;28;20273;-53
2024/03/29 01:35:49;;;;;;;3.80;1.33;;;7.80;99.90;;;;;;5033282;28;20507;-54
2024/03/29 01:38:15;;;;;;;1.20;1.10;;;7.70;99.90;;;;;;5032730;28;20256;-57
2024/03/29 01:40:41;;;;;;;1.20;1.10;;;7.70;99.90;;;;;;5031519;28;20180;-55
2024/03/29 01:43:08;;;;;;;5.10;1.70;;;7.60;99.90;;;;;;5033770;28;20218;-54
2024/03/29 01:45:38;;;;;;;0.93;0.93;;;7.60;99.90;;;;;;5033167;28;20201;-51
2024/03/29 01:48:04;;;;;;;2.80;1.30;;;7.60;99.90;;;;;;5032951;28;20825;-53
2024/03/29 01:50:30;;;;;;;1.70;1.17;;;7.50;99.90;;;;;;5033264;28;20511;-52
2024/03/29 01:52:56;;;;;;;4.30;1.50;;;7.50;99.90;;;;;;5032802;28;20989;-53
2024/03/29 01:55:22;;;;;;;1.53;1.27;;;7.50;99.90;;;;;;5032832;28;20444;-56
2024/03/29 01:57:49;;;;;;;3.30;1.13;;;7.40;99.90;;;;;;5031161;28;20189;-56
2024/03/29 02:00:14;;;;;;;1.63;1.50;;;7.40;99.90;;;;;;5032716;28;20177;-49
2024/03/29 02:02:40;;;;;;;1.53;1.43;;;7.40;99.90;;;;;;5032642;28;20931;-56
2024/03/29 02:05:06;;;;;;;3.90;1.60;;;7.40;99.90;;;;;;5032671;28;20296;-57
2024/03/29 02:07:32;;;;;;;2.13;1.60;;;7.30;99.90;;;;;;5032554;28;20166;-53
2024/03/29 02:09:58;;;;;;;2.83;2.07;;;7.30;99.90;;;;;;5032533;28;20482;-54
2024/03/29 02:12:23;;;;;;;1.50;1.40;;;7.30;99.90;;;;;;5031048;28;20456;-56
2024/03/29 02:14:49;;;;;;;1.50;1.40;;;7.30;99.90;;;;;;5032311;28;20666;-50
2024/03/29 02:17:14;;;;;;;2.60;1.30;;;7.30;99.90;;;;;;5032348;28;20545;-52
2024/03/29 02:19:40;;;;;;;2.87;1.50;;;7.30;99.90;;;;;;5032661;28;20584;-52
2024/03/29 02:22:09;;;;;;;3.30;1.67;;;7.30;99.90;;;;;;5032582;28;20266;-56
2024/03/29 02:24:35;;;;;;;1.47;1.37;;;7.30;99.90;;;;;;5032412;28;20454;-53
2024/03/29 02:27:01;;;;;;;1.90;1.63;;;7.20;99.90;;;;;;5032441;28;20563;-49
2024/03/29 02:29:26;;;;;;;2.27;1.57;;;7.20;99.90;;;;;;5030608;28;20520;-49
2024/03/29 02:31:52;;;;;;;3.10;1.80;;;7.20;99.90;;;;;;5032049;28;20175;-58
2024/03/29 02:34:18;;;;;;;2.23;2.00;;;7.20;99.90;;;;;;5031272;28;20183;-55
2024/03/29 02:36:45;;;;;;;2.70;1.80;;;7.20;99.90;;;;;;5032049;28;20173;-53
2024/03/29 02:39:11;;;;;;;2.47;1.80;;;7.10;99.90;;;;;;5031998;28;20471;-56
2024/03/29 02:41:36;;;;;;;2.20;1.97;;;7.10;99.90;;;;;;5032117;28;20454;-53
2024/03/29 02:44:02;;;;;;;1.80;1.70;;;7.10;99.90;;;;;;5029840;28;20176;-52
2024/03/29 02:46:27;;;;;;;4.87;1.50;;;7.10;99.90;;;;;;5032258;28;20210;-53
2024/03/29 02:48:53;;;;;;;3.03;1.80;;;7.00;99.90;;;;;;5031074;28;20658;-52
2024/03/29 02:51:19;;;;;;;4.33;1.97;;;7.00;99.90;;;;;;5032023;28;20171;-54
2024/03/29 02:53:44;;;;;;;2.73;1.70;;;6.90;99.90;;;;;;5031969;28;20252;-59
2024/03/29 02:56:10;;;;;;;2.07;1.57;;;6.90;99.90;;;;;;5031956;28;20183;-51
2024/03/29 02:58:35;;;;;;;2.47;1.63;;;6.90;99.90;;;;;;5031968;28;20686;-53
2024/03/29 03:01:08;;;;;;;2.70;1.70;;;6.90;99.90;;;;;;5031730;28;20180;-54
2024/03/29 03:03:35;;;;;;;1.80;1.70;;;6.90;99.90;;;;;;5030371;28;20643;-55
2024/03/29 03:06:01;;;;;;;3.80;2.00;;;6.90;99.90;;;;;;5031462;28;20872;-56
2024/03/29 03:11:10;;;;;;;2.57;1.90;;;6.90;99.90;;;;;;5023982;28;20929;-54
2024/03/29 03:13:36;;;;;;;1.83;1.73;;;6.90;99.90;;;;;;5031767;28;20414;-51
2024/03/29 03:16:02;;;;;;;2.87;1.63;;;6.90;99.90;;;;;;5031471;28;20206;-55
2024/03/29 03:18:28;;;;;;;3.03;1.80;;;6.80;99.90;;;;;;5029805;28;20219;-51
2024/03/29 03:20:55;;;;;;;1.67;1.50;;;6.80;99.90;;;;;;5028675;28;20484;-55
2024/03/29 03:23:21;;;;;;;2.23;1.43;;;6.70;99.90;;;;;;5029678;28;20208;-53
2024/03/29 03:25:57;;;;;;;2.40;1.50;;;6.80;99.90;;;;;;5031079;28;20490;-50
2024/03/29 03:28:22;;;;;;;1.93;1.67;;;6.70;99.90;;;;;;5031617;28;20192;-53
2024/03/29 03:30:49;;;;;;;2.20;1.70;;;6.60;99.90;;;;;;5031503;28;20423;-53
2024/03/29 03:33:15;;;;;;;2.47;2.27;;;6.60;99.90;;;;;;5032265;28;20173;-56
2024/03/29 03:35:41;;;;;;;4.83;1.87;;;6.60;99.90;;;;;;5031745;28;20494;-54
2024/03/29 03:38:08;;;;;;;2.23;1.70;;;6.60;99.90;;;;;;5031217;28;20195;-57
2024/03/29 03:40:34;;;;;;;2.50;2.07;;;6.60;99.90;;;;;;5029848;28;20524;-54
2024/03/29 03:43:00;;;;;;;3.50;2.00;;;6.60;99.90;;;;;;5030927;28;20465;-56
2024/03/29 03:45:26;;;;;;;2.30;1.63;;;6.60;99.90;;;;;;5031054;28;20454;-53
2024/03/29 03:47:51;;;;;;;3.03;2.30;;;6.60;99.90;;;;;;5031125;28;20418;-54
2024/03/29 03:50:17;;;;;;;5.13;2.27;;;6.60;99.90;;;;;;5031369;28;20334;-55
2024/03/29 03:52:43;;;;;;;2.30;2.10;;;6.50;99.90;;;;;;5031416;28;20173;-55
2024/03/29 03:55:08;;;;;;;5.03;2.43;;;6.50;99.90;;;;;;5031385;28;20270;-56
2024/03/29 03:57:34;;;;;;;2.70;2.10;;;6.40;99.90;;;;;;5029833;28;20180;-57
2024/03/29 04:00:00;;;;;;;2.03;1.77;;;6.40;99.90;;;;;;5031441;28;20201;-55
2024/03/29 04:02:26;;;;;;;1.90;1.80;;;6.40;99.90;;;;;;5035037;28;20429;-56
2024/03/29 04:04:52;;;;;;;3.07;2.00;;;6.30;99.90;;;;;;5034989;28;20865;-56
2024/03/29 04:07:17;;;;;;;3.27;2.03;;;6.30;99.90;;;;;;5035272;28;20515;-54
2024/03/29 04:09:43;;;;;;;2.73;1.73;;;6.30;99.90;;;;;;5035289;28;20435;-57
2024/03/29 04:12:08;;;;;;;2.17;1.97;;;6.20;99.90;;;;;;5035129;28;20533;-57
2024/03/29 04:14:34;;;;;;;6.23;2.03;;;6.20;99.90;;;;;;5033103;28;20172;-57
2024/03/29 04:17:00;;;;;;;5.77;2.03;;;6.20;99.90;;;;;;5034658;28;20181;-58
2024/03/29 04:19:25;;;;;;;2.87;2.00;;;6.10;99.90;;;;;;5034405;28;20224;-58
2024/03/29 04:21:52;;;;;;;2.50;1.43;;;6.20;99.90;;;;;;5034787;28;20176;-57
2024/03/29 04:24:18;;;;;;;4.03;2.00;;;6.20;99.90;;;;;;5032620;28;20183;-57
2024/03/29 04:26:44;;;;;;;3.63;1.93;;;6.20;99.90;;;;;;5034565;28;20426;-55
2024/03/29 04:29:10;;;;;;;4.17;2.50;;;6.20;99.90;;;;;;5034324;28;20192;-56
2024/03/29 04:31:36;;;;;;;3.93;2.10;;;6.20;99.90;;;;;;5034613;28;20510;-57
2024/03/29 04:34:01;;;;;;;3.87;1.93;;;6.10;99.90;;;;;;5034343;28;20446;-56
2024/03/29 04:36:27;;;;;;;1.80;1.57;;;6.10;99.90;;;;;;5034375;28;20179;-54
2024/03/29 04:38:53;;;;;;;1.70;1.40;;;6.20;99.90;;;;;;5034154;28;20671;-56
2024/03/29 04:41:19;;;;;;;1.80;1.63;;;6.20;99.90;;;;;;5032716;28;20175;-53
2024/03/29 04:43:45;;;;;;;2.77;1.87;;;6.20;99.90;;;;;;5034209;28;20423;-55
2024/03/29 04:46:11;;;;;;;4.03;1.70;;;6.20;99.90;;;;;;5033741;28;20195;-58
2024/03/29 04:48:42;;;;;;;1.53;1.43;;;6.20;99.90;;;;;;5034156;28;21002;-58
2024/03/29 04:51:11;;;;;;;2.63;1.93;;;6.30;99.90;;;;;;5033919;28;20501;-57
2024/03/29 04:53:38;;;;;;;4.40;1.50;;;6.30;99.90;;;;;;5034140;28;20430;-55
2024/03/29 04:56:04;;;;;;;2.07;1.37;;;6.30;99.90;;;;;;5032434;28;20741;-57
2024/03/29 04:58:29;;;;;;;1.83;1.73;;;6.30;99.90;;;;;;5033730;28;20442;-56
2024/03/29 05:00:55;;;;;;;1.90;1.70;;;6.30;99.90;;;;;;5033330;28;20433;-57
2024/03/29 05:03:22;;;;;;;2.20;1.77;;;6.30;99.90;;;;;;5033741;28;20638;-57
2024/03/29 05:05:49;;;;;;;1.70;1.60;;;6.30;99.90;;;;;;5033666;28;20865;-57
2024/03/29 05:08:18;;;;;;;1.70;1.27;;;6.30;99.90;;;;;;5034370;28;20578;-56
2024/03/29 05:10:44;;;;;;;1.90;1.10;;;6.40;99.90;;;;;;5031670;28;20415;-57
2024/03/29 05:13:10;;;;;;;2.30;1.43;;;6.40;99.90;;;;;;5031939;28;20415;-56
2024/03/29 05:15:36;;;;;;;1.73;1.63;;;6.40;99.90;;;;;;5032532;28;20563;-57
2024/03/29 05:18:03;;;;;;;3.23;2.00;;;6.50;99.90;;;;;;5032611;28;20211;-56
2024/03/29 05:20:29;;;;;;;4.23;1.60;;;6.50;99.90;;;;;;5031567;28;20428;-56
2024/03/29 05:22:54;;;;;;;3.37;1.20;;;6.60;99.90;;;;;;5032307;28;20488;-57
2024/03/29 05:25:20;;;;;;;4.20;1.33;;;6.60;99.90;;;;;;5030353;28;20869;-56
2024/03/29 05:27:45;;;;;;;1.80;1.20;;;6.70;99.90;;;;;;5032343;28;20264;-54
2024/03/29 05:30:12;;;;;;;1.97;1.40;;;6.70;99.90;;;;;;5032378;28;20702;-57
2024/03/29 05:32:38;;;;;;;2.50;1.63;;;6.80;99.90;;;;;;5032525;28;20255;-56
2024/03/29 05:35:04;;;;;;;1.30;1.20;;;6.80;99.90;;;;;;5032245;28;20464;-54
2024/03/29 05:37:30;;;;;;;1.83;1.20;;;6.80;99.90;;;;;;5032396;28;20650;-56
2024/03/29 05:40:04;;;;;;;3.10;2.10;;;6.90;99.90;;;;;;5032446;28;20476;-51
2024/03/29 05:42:31;;;;;;;1.47;1.20;;;6.90;99.90;;;;;;5030166;28;20187;-57
2024/03/29 05:44:56;;;;;;;1.90;1.30;;;7.00;99.90;;;;;;5031982;28;20458;-57
2024/03/29 05:47:22;;;;;;;3.73;1.40;;;7.00;99.90;;;;;;5032497;28;20459;-57
2024/03/29 05:49:49;;;;;;;1.50;1.30;;;7.00;99.90;;;;;;5032305;28;20200;-56
2024/03/29 05:52:15;;;;;;;2.40;1.27;;;7.00;99.90;;;;;;5032110;28;20696;-57
2024/03/29 05:54:44;;;;;;;2.70;1.20;;;7.10;99.90;;;;;;5032156;28;20478;-53
2024/03/29 05:57:10;;;;;;;2.67;1.70;;;7.10;99.90;;;;;;5029765;28;20451;-56
2024/03/29 05:59:36;;;;;;;2.77;1.40;;;7.20;99.90;;;;;;5031961;28;20445;-57
2024/03/29 06:02:02;;;;;;;3.37;1.30;;;7.30;99.90;;;;;;5031704;28;20415;-57
2024/03/29 06:04:33;;;;;;;1.87;1.77;;;7.30;99.90;;;;;;5031742;28;20208;-55
2024/03/29 06:07:00;;;;;;;1.97;1.37;;;7.30;99.90;;;;;;5029833;28;20421;-54
2024/03/29 06:09:25;;;;;;;1.80;1.60;;;7.40;99.90;;;;;;5031884;28;20906;-57
2024/03/29 06:11:52;;;;;;;2.40;1.43;;;7.50;99.90;;;;;;5031725;28;20434;-57
2024/03/29 06:19:45;;;;;;;4.80;1.63;;;7.60;99.90;;;;;;5028695;28;20445;-56
2024/03/29 06:22:11;;;;;;;2.87;1.73;;;7.70;99.90;;;;;;5029431;28;20442;-56
2024/03/29 06:24:38;;;;;;;1.93;1.43;;;7.90;99.90;;;;;;5031169;28;20249;-57
2024/03/29 06:27:04;;;;;;;1.60;1.23;;;8.00;99.90;;;;;;5029275;28;20181;-57
2024/03/29 06:29:30;;;;;;;2.03;1.50;;;8.10;99.90;;;;;;5031422;28;20437;-58
2024/03/29 06:31:55;;;;;;;2.03;1.40;;;8.10;99.90;;;;;;5031440;28;20178;-57
2024/03/29 06:34:21;;;;;;;3.97;1.60;;;8.10;99.90;;;;;;5031380;28;20199;-56
2024/03/29 06:36:46;;;;;;;1.40;1.30;;;8.10;99.90;;;;;;5031178;28;20179;-58
2024/03/29 06:39:12;;;;;;;4.90;2.43;;;8.20;99.90;;;;;;5031076;28;21692;-58
2024/03/29 06:41:37;;;;;;;2.00;1.43;;;8.30;99.90;;;;;;5031366;28;20170;-58
2024/03/29 06:44:03;;;;;;;2.93;1.60;;;8.20;99.90;;;;;;5016793;28;20190;-55
2024/03/29 06:46:29;;;;;;;1.30;1.20;;;8.30;99.90;;;;;;5030776;28;20201;-54
2024/03/29 06:48:54;;;;;;;3.20;1.43;;;8.60;99.90;;;;;;5030960;28;20190;-57
2024/03/29 06:51:20;;;;;;;1.67;1.53;;;8.60;99.90;;;;;;5030876;28;20296;-57
2024/03/29 06:53:45;;;;;;;2.30;1.27;;;8.60;99.90;;;;;;5029951;28;20173;-57
2024/03/29 06:56:11;;;;;;;2.30;1.30;;;8.80;99.90;;;;;;5030914;28;20634;-58
2024/03/29 06:58:37;;;;;;;1.97;1.20;;;8.80;99.90;;;;;;5029305;28;20735;-57
2024/03/29 07:01:03;;;;;;;1.63;1.20;;;9.00;99.90;;;;;;5031105;28;20206;-56
2024/03/29 07:03:28;;;;;;;2.70;1.50;;;9.20;99.90;;;;;;5030996;28;20422;-55
2024/03/29 07:05:54;;;;;;;2.10;1.37;;;9.40;99.90;;;;;;5030801;28;20195;-57
2024/03/29 07:08:19;;;;;;;3.17;1.37;;;9.60;99.90;;;;;;5030750;28;20677;-56
2024/03/29 07:10:45;;;;;;;1.20;1.10;;;9.60;99.90;;;;;;5030857;28;20172;-57
2024/03/29 07:13:11;;;;;;;2.27;1.37;;;9.60;99.90;;;;;;5030663;28;20172;-55
2024/03/29 07:15:36;;;;;;;2.30;1.30;;;9.90;99.90;;;;;;5030839;28;20179;-56
2024/03/29 07:18:05;;;;;;;2.40;1.30;;;9.90;99.90;;;;;;5029192;28;20222;-56
2024/03/29 07:20:30;;;;;;;2.27;1.83;;;10.00;99.90;;;;;;5030781;28;20804;-58
2024/03/29 07:22:56;;;;;;;1.40;1.00;;;9.90;99.90;;;;;;5030851;28;20417;-56
2024/03/29 07:25:22;;;;;;;2.97;1.23;;;10.00;99.90;;;;;;5030748;28;20290;-55
2024/03/29 07:27:47;;;;;;;1.27;1.10;;;9.90;99.90;;;;;;5029111;28;20178;-55
2024/03/29 07:30:15;;;;;;;2.70;1.30;;;9.90;99.90;;;;;;5030829;28;20415;-55
2024/03/29 07:32:41;;;;;;;2.20;1.30;;;9.90;99.90;;;;;;5031068;28;20647;-53
2024/03/29 07:35:07;;;;;;;1.93;1.20;;;10.10;99.90;;;;;;5031339;28;20520;-55
2024/03/29 07:37:32;;;;;;;1.53;1.13;;;10.10;99.90;;;;;;5034976;28;21539;-57
2024/03/29 07:39:58;;;;;;;5.23;1.60;;;10.20;99.90;;;;;;5035140;28;20525;-55
2024/03/29 07:42:23;;;;;;;3.50;1.27;;;10.20;99.90;;;;;;5034611;28;20671;-55
2024/03/29 07:44:49;;;;;;;2.13;1.33;;;10.10;99.90;;;;;;5032853;28;20222;-55
2024/03/29 07:47:14;;;;;;;5.33;1.63;;;10.30;99.90;;;;;;5034633;28;20650;-56
2024/03/29 07:49:40;;;;;;;3.13;1.70;;;10.30;99.90;;;;;;5034280;28;20541;-55
2024/03/29 07:52:08;;;;;;;2.23;1.50;;;10.30;99.90;;;;;;5034352;28;20222;-57
2024/03/29 07:54:34;;;;;;;1.00;0.90;;;10.40;99.90;;;;;;5034394;28;20510;-53
2024/03/29 07:56:59;;;;;;;1.70;1.10;;;10.40;99.90;;;;;;5035201;28;20425;-57
2024/03/29 07:59:25;;;;;;;1.80;1.40;;;10.40;99.90;;;;;;5033722;28;20650;-58
2024/03/29 08:01:52;;;;;;;1.60;1.20;;;10.40;99.90;;;;;;5035099;28;20176;-58
2024/03/29 08:04:17;;;;;;;2.23;1.27;;;10.40;99.90;;;;;;5034719;28;20694;-58
2024/03/29 08:06:43;;;;;;;2.30;1.40;;;10.50;99.90;;;;;;5035065;28;20418;-58
2024/03/29 08:09:09;;;;;;;4.67;1.67;;;10.60;99.90;;;;;;5032644;28;20666;-56
2024/03/29 08:11:35;;;;;;;2.63;1.40;;;10.60;99.90;;;;;;5035016;28;20552;-56
2024/03/29 08:14:02;;;;;;;1.43;1.33;;;10.60;99.90;;;;;;5033764;28;20422;-56
2024/03/29 08:16:27;;;;;;;2.23;1.70;;;10.60;99.90;;;;;;5034422;28;20187;-58
2024/03/29 08:18:53;;;;;;;1.40;1.27;;;10.70;99.90;;;;;;5034426;28;20465;-58
2024/03/29 08:21:18;;;;;;;4.70;1.40;;;10.70;99.90;;;;;;5034959;28;20176;-58
2024/03/29 08:23:46;;;;;;;2.90;1.63;;;10.70;99.90;;;;;;5034771;28;20547;-54
2024/03/29 08:26:12;;;;;;;1.60;1.50;;;10.60;99.90;;;;;;5033642;28;20251;-57
2024/03/29 08:28:38;;;;;;;1.53;1.00;;;10.70;99.90;;;;;;5032519;28;20548;-58
2024/03/29 08:31:06;;;;;;;2.13;1.67;;;10.70;99.90;;;;;;5034412;28;20297;-58
2024/03/29 08:33:31;;;;;;;4.37;1.70;;;10.80;99.90;;;;;;5034375;28;20230;-58
2024/03/29 08:35:57;;;;;;;2.97;1.53;;;10.80;99.90;;;;;;5034241;28;20414;-58
2024/03/29 08:38:23;;;;;;;3.60;1.57;;;11.00;99.90;;;;;;5034528;28;20990;-58
2024/03/29 08:40:49;;;;;;;2.70;1.23;;;11.10;99.90;;;;;;5034583;28;20211;-59
2024/03/29 08:43:16;;;;;;;1.20;0.97;;;11.20;99.90;;;;;;5032620;28;20963;-57
2024/03/29 08:45:42;;;;;;;1.53;1.10;;;11.30;99.90;;;;;;5034108;28;20198;-58
2024/03/29 08:48:08;;;;;;;1.30;0.97;;;11.50;99.90;;;;;;5032707;28;20422;-57
2024/03/29 08:50:35;;;;;;;1.50;1.40;;;11.70;99.90;;;;;;5034485;28;20175;-57
2024/03/29 08:53:02;;;;;;;1.53;1.30;;;11.70;99.90;;;;;;5034301;28;20413;-57
2024/03/29 08:55:27;;;;;;;1.90;1.43;;;11.60;99.90;;;;;;5026247;28;20449;-59
2024/03/29 08:57:53;;;;;;;2.80;1.60;;;11.70;99.90;;;;;;5032523;28;20876;-56
2024/03/29 09:00:19;;;;;;;1.53;1.20;;;11.70;99.90;;;;;;5032741;28;20592;-56
2024/03/29 09:02:46;;;;;;;3.80;1.53;;;11.80;99.90;;;;;;5031946;28;20254;-57
2024/03/29 09:05:12;;;;;;;1.43;1.07;;;11.90;99.90;;;;;;5031709;28;20232;-57
2024/03/29 09:07:38;;;;;;;1.33;1.10;;;12.10;99.90;;;;;;5033958;28;20449;-55
2024/03/29 09:10:04;;;;;;;5.10;1.00;;;12.50;99.90;;;;;;5033970;28;20199;-57
2024/03/29 09:12:30;;;;;;;3.87;1.17;;;12.70;99.90;;;;;;5033352;28;20421;-57
2024/03/29 09:14:56;;;;;;;2.00;1.40;;;12.70;99.90;;;;;;5033746;28;20411;-57
2024/03/29 09:17:24;;;;;;;1.60;1.23;;;12.70;99.90;;;;;;5033589;28;20180;-55
2024/03/29 09:19:53;;;;;;;2.03;1.57;;;12.90;99.90;;;;;;5033529;28;20211;-59
2024/03/29 09:22:19;;;;;;;1.83;1.57;;;13.10;99.90;;;;;;5031489;28;20422;-57
2024/03/29 09:24:45;;;;;;;2.07;1.53;;;13.10;99.90;;;;;;5033658;28;20500;-57
2024/03/29 09:27:10;;;;;;;1.57;1.10;;;13.30;99.90;;;;;;5033050;28;20204;-58
2024/03/29 09:29:36;;;;;;;1.13;1.03;;;13.50;99.90;;;;;;5029450;28;20625;-56
2024/03/29 09:32:01;;;;;;;1.37;1.13;;;13.10;99.90;;;;;;5033263;28;20207;-59
2024/03/29 09:34:28;;;;;;;3.50;1.30;;;13.40;99.90;;;;;;5032661;28;20176;-57
2024/03/29 09:36:53;;;;;;;2.00;1.30;;;13.40;99.90;;;;;;5032899;28;20263;-56
2024/03/29 09:39:19;;;;;;;3.23;1.40;;;13.40;99.90;;;;;;5032637;28;20527;-56
2024/03/29 09:41:45;;;;;;;1.93;1.10;;;13.50;99.90;;;;;;5032580;28;20579;-56
2024/03/29 09:44:11;;;;;;;1.30;1.20;;;13.30;99.90;;;;;;5032564;28;20252;-58
2024/03/29 09:46:39;;;;;;;4.33;1.73;;;13.50;99.90;;;;;;5030812;28;20542;-56
2024/03/29 09:49:11;;;;;;;1.40;1.20;;;13.30;99.90;;;;;;5033345;28;20439;-57
2024/03/29 09:51:39;;;;;;;2.07;1.30;;;13.50;99.90;;;;;;5033587;28;20894;-59
2024/03/29 09:54:08;;;;;;;2.30;1.00;;;13.70;99.90;;;;;;5032817;28;20780;-61
2024/03/29 09:56:34;;;;;;;2.70;1.50;;;14.00;99.90;;;;;;5021681;28;20502;-56
2024/03/29 09:59:01;;;;;;;1.20;1.00;;;13.80;99.90;;;;;;5029286;28;20917;-53
2024/03/29 10:01:28;;;;;;;1.23;1.00;;;13.90;99.10;;;;;;5030378;28;20807;-57
2024/03/29 10:03:54;;;;;;;2.83;1.13;;;13.80;99.00;;;;;;5030784;28;20866;-54
2024/03/29 10:06:23;;;;;;;1.30;1.10;;;13.60;99.80;;;;;;5030192;28;20508;-57
2024/03/29 10:08:49;;;;;;;2.90;1.20;;;13.30;99.50;;;;;;5030898;28;20430;-56
2024/03/29 10:11:19;;;;;;;2.90;1.30;;;13.60;98.60;;;;;;5030769;28;20837;-56
2024/03/29 10:13:45;;;;;;;2.50;1.30;;;13.70;97.30;;;;;;5032325;28;20176;-56
2024/03/29 10:16:12;;;;;;;2.90;1.10;;;13.60;98.30;;;;;;5031730;28;20901;-57
2024/03/29 10:18:40;;;;;;;1.70;1.23;;;13.50;98.50;;;;;;5032281;28;20462;-55
2024/03/29 10:21:07;;;;;;;2.33;1.33;;;13.40;98.80;;;;;;5032696;28;21222;-56
2024/03/29 10:23:37;;;;;;;2.50;1.00;;;13.30;99.20;;;;;;5031860;28;20417;-55
2024/03/29 10:26:03;;;;;;;1.33;1.03;;;13.20;99.90;;;;;;5032423;28;20488;-52
2024/03/29 10:28:34;;;;;;;3.10;1.00;;;13.20;99.90;;;;;;5031365;28;20516;-59
2024/03/29 10:31:04;;;;;;;2.93;1.20;;;13.10;99.90;;;;;;5030929;28;20476;-56
2024/03/29 10:33:34;;;;;;;1.33;1.00;;;12.80;99.90;;;;;;5032280;28;20796;-56
2024/03/29 10:36:00;;;;;;;1.90;1.30;;;12.70;99.90;;;;;;5032318;28;20425;-56
2024/03/29 10:38:27;;;;;;;1.57;1.10;;;12.70;99.90;;;;;;5032022;28;20509;-57
2024/03/29 10:40:53;;;;;;;1.97;1.13;;;12.70;99.90;;;;;;5032244;28;20445;-56
2024/03/29 10:43:20;;;;;;;2.50;1.13;;;12.60;99.90;;;;;;5013843;28;20423;-57
2024/03/29 10:45:50;;;;;;;3.03;1.23;;;12.60;99.90;;;;;;5031137;28;20456;-55
2024/03/29 10:48:16;;;;;;;2.50;1.47;;;12.70;99.90;;;;;;5031405;28;20438;-55
2024/03/29 10:50:45;;;;;;;1.63;1.33;;;12.80;99.90;;;;;;5031668;28;20452;-56
2024/03/29 10:53:12;;;;;;;1.63;1.20;;;13.20;99.90;;;;;;5031610;28;20509;-54
2024/03/29 10:55:38;;;;;;;1.60;1.27;;;13.10;99.90;;;;;;5028161;28;20416;-57
2024/03/29 10:58:05;;;;;;;1.00;1.00;;;13.00;99.90;;;;;;5031743;28;20482;-55
2024/03/29 11:00:38;;;;;;;1.63;1.20;;;12.90;99.90;;;;;;5025342;28;20619;-58
2024/03/29 11:03:32;;;;;;;2.33;1.30;;;13.00;99.90;;;;;;5031818;28;20469;-53
2024/03/29 11:06:04;;;;;;;0.80;0.80;;;13.20;99.90;;;;;;5026626;28;21080;-56
2024/03/29 11:08:34;;;;;;;2.00;1.00;;;13.40;99.90;;;;;;5031789;28;20446;-56
2024/03/29 11:11:03;;;;;;;2.40;1.10;;;13.30;99.90;;;;;;5031124;28;20513;-55
2024/03/29 11:13:49;;;;;;;1.10;1.00;;;13.60;99.90;;;;;;5031528;28;20418;-57
2024/03/29 11:16:20;;;;;;;10.67;6.90;;;13.70;99.90;;;;;;5031715;28;20453;-56
2024/03/29 11:18:49;;;;;;;6.17;3.90;;;13.90;99.90;;;;;;5031399;28;20465;-57
2024/03/29 11:21:18;;;;;;;5.93;1.93;;;14.00;99.90;;;;;;5030887;28;20423;-56
2024/03/29 11:23:52;;;;;;;2.20;1.13;;;13.90;99.90;;;;;;5031394;28;20450;-56
2024/03/29 11:26:18;;;;;;;1.43;1.17;;;13.70;99.90;;;;;;5030306;28;20465;-57
2024/03/29 11:28:49;;;;;;;1.30;1.13;;;13.90;99.90;;;;;;5031000;28;20436;-57
2024/03/29 11:31:16;;;;;;;2.67;1.97;;;13.60;99.90;;;;;;5028581;28;20422;-54
2024/03/29 11:33:45;;;;;;;2.33;1.43;;;13.70;99.90;;;;;;5031056;28;20417;-57
2024/03/29 11:36:24;;;;;;;2.83;2.40;;;13.90;99.90;;;;;;5030400;28;20420;-54
2024/03/29 11:38:52;;;;;;;1.77;1.67;;;14.00;99.90;;;;;;5027262;28;20447;-60
2024/03/29 11:41:24;;;;;;;2.20;1.03;;;14.10;99.90;;;;;;5031061;28;20505;-56
2024/03/29 11:43:53;;;;;;;1.30;0.90;;;13.90;99.90;;;;;;5030816;28;20429;-59
2024/03/29 11:46:20;;;;;;;1.53;1.30;;;14.00;99.90;;;;;;5030696;28;21030;-56
2024/03/29 11:48:49;;;;;;;4.23;1.20;;;14.00;99.90;;;;;;5030924;28;20439;-57
2024/03/29 11:51:18;;;;;;;1.93;1.00;;;14.10;99.90;;;;;;5030891;28;20764;-55
2024/03/29 11:53:44;;;;;;;2.00;1.47;;;13.70;99.90;;;;;;5028613;28;20414;-57
2024/03/29 11:56:13;;;;;;;2.10;1.03;;;13.80;99.90;;;;;;5030154;28;20450;-57
2024/03/29 11:58:41;;;;;;;2.50;0.80;;;13.80;99.90;;;;;;5029148;28;20433;-53
2024/03/29 12:01:10;;;;;;;2.50;1.03;;;13.60;99.90;;;;;;5031121;28;20418;-57
2024/03/29 12:03:39;;;;;;;1.10;1.00;;;13.50;99.90;;;;;;5030872;28;20415;-54
2024/03/29 12:06:05;;;;;;;1.17;0.97;;;13.70;99.90;;;;;;5030966;28;20493;-57
2024/03/29 12:08:35;;;;;;;1.57;1.20;;;13.70;99.90;;;;;;5030807;28;20434;-58
2024/03/29 12:11:02;;;;;;;1.33;1.07;;;13.70;99.90;;;;;;5030988;28;20529;-54
2024/03/29 12:13:29;;;;;;;3.70;1.10;;;13.80;99.90;;;;;;5030598;28;20465;-58
2024/03/29 12:15:55;;;;;;;1.70;1.17;;;13.60;99.90;;;;;;5030665;28;20406;-58
2024/03/29 12:18:22;;;;;;;1.63;1.07;;;13.60;99.90;;;;;;5030362;28;20454;-57
2024/03/29 12:20:52;;;;;;;2.03;1.20;;;13.70;99.90;;;;;;5030970;28;20421;-58
2024/03/29 12:23:19;;;;;;;4.17;2.10;;;13.40;99.90;;;;;;5022198;28;20519;-56
2024/03/29 12:25:45;;;;;;;4.30;1.67;;;13.60;99.90;;;;;;5034680;28;20910;-55
2024/03/29 12:28:12;;;;;;;2.67;1.80;;;13.90;99.90;;;;;;5034078;28;20529;-56
2024/03/29 12:30:40;;;;;;;13.83;8.47;;;13.80;99.90;;;;;;5034350;28;20968;-56
2024/03/29 12:33:15;;;;;;;37.77;22.53;;;13.90;99.90;;;;;;5034110;28;20441;-55
2024/03/29 12:35:44;;;;;;;6.73;3.23;;;13.90;99.90;;;;;;5026804;28;20420;-59
2024/03/29 12:38:12;;;;;;;8.43;4.63;;;14.10;99.90;;;;;;5034170;28;20443;-55
2024/03/29 12:40:40;;;;;;;2.83;2.10;;;14.30;99.90;;;;;;5034278;28;20419;-55
2024/03/29 12:43:08;;;;;;;2.00;1.27;;;14.60;99.90;;;;;;5034000;28;20780;-55
2024/03/29 12:45:36;;;;;;;1.30;0.90;;;14.80;99.90;;;;;;5033207;28;20463;-57
2024/03/29 12:48:02;;;;;;;2.20;1.67;;;15.10;99.90;;;;;;5034519;28;20447;-55
2024/03/29 12:50:29;;;;;;;1.50;1.20;;;15.10;99.90;;;;;;5033768;28;20432;-57
2024/03/29 12:52:57;;;;;;;1.43;1.17;;;15.50;99.90;;;;;;5033969;28;20455;-57
2024/03/29 12:55:24;;;;;;;2.03;1.00;;;15.90;99.00;;;;;;5034174;28;20444;-56
2024/03/29 12:57:50;;;;;;;1.90;1.23;;;15.60;98.10;;;;;;5033187;28;20422;-55